Time;durP1;ratioP1;P1;durP2;ratioP2;P2;SDS_P1;SDS_P2;PMS_P1;PMS_P2;Temp;Humidity;BMP_temperature;BMP_pressure;BME280_temperature;BME280_humidity;BME280_pressure;Samples;Min_cycle;Max_cycle;Signal;HPM_P1;HPM_P2
2022/05/09 00:02:22;;;;;;;8.17;7.00;;;15.10;90.80;;;;;;7377041;19;20380;-49
2022/05/09 00:04:51;;;;;;;7.23;6.53;;;15.20;90.30;;;;;;7373380;19;20379;-48
2022/05/09 00:07:21;;;;;;;8.20;7.40;;;15.20;90.40;;;;;;7375632;19;20918;-48
2022/05/09 00:09:54;;;;;;;7.77;6.57;;;15.30;90.10;;;;;;7375271;19;20383;-48
2022/05/09 00:12:24;;;;;;;7.10;6.40;;;15.30;90.00;;;;;;7376412;19;20822;-48
2022/05/09 00:14:53;;;;;;;7.50;6.77;;;15.30;90.00;;;;;;7375453;19;20497;-48
2022/05/09 00:17:28;;;;;;;7.00;6.33;;;15.20;90.00;;;;;;7373423;19;20761;-48
2022/05/09 00:19:58;;;;;;;8.43;7.03;;;15.00;91.00;;;;;;7375697;19;20393;-48
2022/05/09 00:22:30;;;;;;;8.17;7.00;;;15.00;91.00;;;;;;7372499;19;20392;-49
2022/05/09 00:25:02;;;;;;;8.73;6.77;;;14.90;91.40;;;;;;7376350;19;20396;-48
2022/05/09 00:27:34;;;;;;;9.60;7.70;;;14.90;91.40;;;;;;7377023;19;20504;-49
2022/05/09 00:30:07;;;;;;;8.63;7.73;;;14.90;91.50;;;;;;7375874;19;21362;-48
2022/05/09 00:32:43;;;;;;;11.37;8.03;;;14.70;92.10;;;;;;7375911;19;20404;-48
2022/05/09 00:35:16;;;;;;;10.90;8.57;;;14.60;92.60;;;;;;7372908;19;20936;-48
2022/05/09 00:37:46;;;;;;;12.03;8.40;;;14.60;92.70;;;;;;7374027;19;20376;-48
2022/05/09 00:40:19;;;;;;;10.30;8.53;;;14.70;92.50;;;;;;7375425;19;20425;-39
2022/05/09 00:42:49;;;;;;;8.80;7.90;;;14.80;92.20;;;;;;7375736;19;21084;-39
2022/05/09 00:45:24;;;;;;;9.13;8.23;;;14.70;92.30;;;;;;7377619;19;20372;-39
2022/05/09 00:47:58;;;;;;;12.03;8.70;;;14.70;92.60;;;;;;7374477;19;20944;-39
2022/05/09 00:50:34;;;;;;;11.50;8.83;;;14.70;92.60;;;;;;7372320;19;20990;-39
2022/05/09 00:53:10;;;;;;;10.90;9.80;;;14.70;92.50;;;;;;7370946;19;20428;-39
2022/05/09 00:55:49;;;;;;;9.63;8.60;;;14.70;92.70;;;;;;7376383;19;20889;-39
2022/05/09 00:58:26;;;;;;;10.40;9.27;;;14.50;93.60;;;;;;7374036;19;20960;-39
2022/05/09 01:01:00;;;;;;;9.27;8.03;;;14.40;93.70;;;;;;7372357;19;20443;-39
2022/05/09 01:03:40;;;;;;;9.30;8.17;;;14.40;93.80;;;;;;7369181;19;20388;-39
2022/05/09 01:06:10;;;;;;;11.40;9.30;;;14.40;93.60;;;;;;7375644;19;20746;-39
2022/05/09 01:08:40;;;;;;;9.87;7.90;;;14.50;93.60;;;;;;7370017;19;20503;-39
2022/05/09 01:11:13;;;;;;;10.93;8.13;;;14.60;93.30;;;;;;7371655;19;20408;-48
2022/05/09 01:13:47;;;;;;;10.90;7.87;;;14.60;93.80;;;;;;7372457;19;20396;-48
2022/05/09 01:16:19;;;;;;;8.60;7.10;;;14.60;93.60;;;;;;7373444;19;20389;-48
2022/05/09 01:18:52;;;;;;;9.50;7.67;;;14.60;93.10;;;;;;7375213;19;20868;-48
2022/05/09 01:21:38;;;;;;;9.33;8.33;;;14.80;92.70;;;;;;7373326;19;20465;-48
2022/05/09 01:24:21;;;;;;;11.80;8.40;;;14.80;92.50;;;;;;7370519;19;20371;-48
2022/05/09 01:26:51;;;;;;;9.83;8.60;;;14.90;92.30;;;;;;7372535;19;20495;-48
2022/05/09 01:29:26;;;;;;;9.20;7.90;;;14.60;92.90;;;;;;7371344;19;20398;-48
2022/05/09 01:31:56;;;;;;;9.77;8.47;;;14.60;93.00;;;;;;7369814;19;20400;-49
2022/05/09 01:34:30;;;;;;;9.33;8.40;;;14.70;93.10;;;;;;7371995;19;20368;-49
2022/05/09 01:37:07;;;;;;;12.93;8.90;;;14.60;93.00;;;;;;7370638;19;20408;-48
2022/05/09 01:39:39;;;;;;;9.03;8.13;;;14.40;93.50;;;;;;7375015;19;20439;-48
2022/05/09 01:42:11;;;;;;;12.03;9.77;;;14.20;94.30;;;;;;7372972;19;20834;-48
2022/05/09 01:44:43;;;;;;;10.77;8.40;;;14.10;94.60;;;;;;7374401;19;20829;-48
2022/05/09 01:49:56;;;;;;;12.03;9.00;;;13.90;95.70;;;;;;7369880;19;20471;-48
2022/05/09 01:52:31;;;;;;;10.03;8.90;;;14.10;95.30;;;;;;7370530;19;20761;-48
2022/05/09 01:55:03;;;;;;;11.50;9.20;;;14.10;95.30;;;;;;7369816;19;20963;-48
2022/05/09 01:57:35;;;;;;;12.73;9.77;;;14.10;95.50;;;;;;7375051;19;20415;-48
2022/05/09 02:00:06;;;;;;;10.60;8.90;;;14.10;95.30;;;;;;7374777;19;20383;-48
2022/05/09 02:02:43;;;;;;;12.00;9.13;;;14.20;95.30;;;;;;7368961;19;20372;-49
2022/05/09 02:05:14;;;;;;;10.27;8.30;;;14.00;95.90;;;;;;7380175;19;20416;-48
2022/05/09 02:07:46;;;;;;;10.93;9.33;;;14.00;96.10;;;;;;7368637;19;20372;-49
2022/05/09 02:10:16;;;;;;;13.80;10.27;;;13.80;96.40;;;;;;7371894;19;20923;-48
2022/05/09 02:12:46;;;;;;;10.83;8.90;;;13.90;96.40;;;;;;7375820;19;20843;-49
2022/05/09 02:15:15;;;;;;;11.27;9.00;;;14.20;95.80;;;;;;7370441;19;20384;-48
2022/05/09 02:17:47;;;;;;;10.80;9.30;;;14.00;96.00;;;;;;7377803;19;20376;-49
2022/05/09 02:20:19;;;;;;;10.67;9.30;;;14.10;96.00;;;;;;7376076;19;20942;-47
2022/05/09 02:22:51;;;;;;;9.17;8.27;;;13.90;96.20;;;;;;7380774;19;20422;-48
2022/05/09 02:25:31;;;;;;;11.70;8.97;;;13.70;97.30;;;;;;7376444;19;20416;-48
2022/05/09 02:28:06;;;;;;;12.43;9.67;;;13.80;97.20;;;;;;7375717;19;20376;-48
2022/05/09 02:30:38;;;;;;;12.37;9.57;;;13.90;96.80;;;;;;7374818;19;20408;-48
2022/05/09 02:33:09;;;;;;;9.50;8.40;;;13.90;96.70;;;;;;7377321;19;20404;-48
2022/05/09 02:35:42;;;;;;;11.13;9.10;;;14.00;96.60;;;;;;7376806;19;20408;-48
2022/05/09 02:38:16;;;;;;;11.27;9.43;;;14.10;95.90;;;;;;7368535;19;20406;-48
2022/05/09 02:40:48;;;;;;;10.33;9.23;;;14.20;95.70;;;;;;7379145;19;20378;-48
2022/05/09 02:43:20;;;;;;;10.13;8.90;;;14.00;96.00;;;;;;7371445;19;20428;-48
2022/05/09 02:45:52;;;;;;;9.87;8.87;;;14.00;96.10;;;;;;7373108;19;20744;-48
2022/05/09 02:48:21;;;;;;;11.90;9.50;;;13.90;96.40;;;;;;7369365;19;20428;-48
2022/05/09 02:50:51;;;;;;;11.50;9.50;;;13.70;96.90;;;;;;7376949;19;20368;-48
2022/05/09 02:53:23;;;;;;;12.67;9.57;;;13.70;97.50;;;;;;7373417;19;20803;-48
2022/05/09 02:55:55;;;;;;;9.80;8.87;;;13.60;97.50;;;;;;7377087;19;20566;-47
2022/05/09 02:58:25;;;;;;;10.37;9.27;;;13.60;98.30;;;;;;7371707;19;20376;-48
2022/05/09 03:00:54;;;;;;;10.70;9.60;;;13.50;98.00;;;;;;7371731;19;20793;-48
2022/05/09 03:06:08;;;;;;;10.67;9.57;;;13.30;98.90;;;;;;7380985;19;20412;-48
2022/05/09 03:08:40;;;;;;;9.23;8.33;;;13.20;99.60;;;;;;7373858;19;20976;-49
2022/05/09 03:11:10;;;;;;;11.20;9.03;;;13.40;99.10;;;;;;7378689;19;20384;-48
2022/05/09 03:13:42;;;;;;;10.13;9.07;;;13.10;99.70;;;;;;7375340;19;20369;-48
2022/05/09 03:16:17;;;;;;;11.30;9.77;;;13.00;99.90;;;;;;7376249;19;20380;-49
2022/05/09 03:18:47;;;;;;;11.27;8.90;;;13.20;99.90;;;;;;7376368;19;21001;-48
2022/05/09 03:21:16;;;;;;;10.70;9.47;;;13.30;99.90;;;;;;7376914;19;20418;-48
2022/05/09 03:23:48;;;;;;;11.40;9.90;;;13.40;99.50;;;;;;7376431;19;20982;-49
2022/05/09 03:26:19;;;;;;;10.10;8.97;;;13.30;99.60;;;;;;7378061;19;21051;-48
2022/05/09 03:28:51;;;;;;;12.60;9.97;;;13.40;99.40;;;;;;7376328;19;20450;-48
2022/05/09 03:31:23;;;;;;;9.90;8.97;;;13.40;99.30;;;;;;7373733;19;20423;-48
2022/05/09 03:33:55;;;;;;;11.30;9.73;;;13.60;98.70;;;;;;7373460;19;20383;-48
2022/05/09 03:36:24;;;;;;;10.20;8.83;;;13.60;98.30;;;;;;7378131;19;20376;-48
2022/05/09 03:38:57;;;;;;;12.50;9.37;;;13.60;98.50;;;;;;7369885;19;20368;-48
2022/05/09 03:41:27;;;;;;;10.37;8.90;;;13.50;98.50;;;;;;7377377;19;20479;-48
2022/05/09 03:43:59;;;;;;;9.73;8.83;;;13.60;98.60;;;;;;7375383;19;20372;-49
2022/05/09 03:46:29;;;;;;;10.73;9.60;;;13.60;98.40;;;;;;7377025;19;20375;-49
2022/05/09 03:49:04;;;;;;;10.20;8.97;;;13.70;98.10;;;;;;7373866;19;20459;-49
2022/05/09 03:51:35;;;;;;;10.70;9.60;;;13.80;97.80;;;;;;7379983;19;20376;-48
2022/05/09 03:54:07;;;;;;;10.40;9.30;;;13.70;98.00;;;;;;7372377;19;20384;-49
2022/05/09 03:56:39;;;;;;;11.60;9.60;;;13.40;99.00;;;;;;7376806;19;20756;-48
2022/05/09 03:59:09;;;;;;;10.33;9.20;;;13.20;99.90;;;;;;7372493;19;20627;-48
2022/05/09 04:01:40;;;;;;;11.33;10.13;;;13.40;99.50;;;;;;7365240;19;20385;-48
2022/05/09 04:04:10;;;;;;;11.40;9.50;;;13.40;99.10;;;;;;7376180;19;20369;-48
2022/05/09 04:06:42;;;;;;;13.57;10.57;;;13.10;99.90;;;;;;7374247;19;20405;-49
2022/05/09 04:09:19;;;;;;;11.03;9.40;;;13.10;99.90;;;;;;7372736;19;20385;-49
2022/05/09 04:11:51;;;;;;;11.73;10.53;;;13.20;99.90;;;;;;7374916;19;20408;-48
2022/05/09 04:16:49;;;;;;;13.17;10.90;;;13.20;99.90;;;;;;7376437;19;20906;-49
2022/05/09 04:17:14;;;;;;;10.80;9.63;;;13.30;99.90;;;;;;7372550;19;20376;-48
2022/05/09 04:19:46;;;;;;;13.83;11.30;;;13.30;99.90;;;;;;7376641;19;20380;-47
2022/05/09 04:22:15;;;;;;;16.40;12.47;;;13.30;99.90;;;;;;7375287;19;20456;-48
2022/05/09 04:24:47;;;;;;;13.23;11.90;;;13.30;99.90;;;;;;7369792;19;20394;-48
2022/05/09 04:27:17;;;;;;;14.00;11.30;;;13.30;99.90;;;;;;7374605;19;20381;-49
2022/05/09 04:29:47;;;;;;;14.17;11.10;;;13.20;99.90;;;;;;7374810;19;20760;-48
2022/05/09 04:32:17;;;;;;;12.77;11.40;;;13.20;99.90;;;;;;7377267;19;20414;-50
2022/05/09 04:34:46;;;;;;;11.87;10.50;;;13.20;99.90;;;;;;7375244;19;21047;-49
2022/05/09 04:37:15;;;;;;;15.57;10.77;;;13.20;99.90;;;;;;7375509;19;20406;-48
2022/05/09 04:39:48;;;;;;;14.33;11.73;;;13.30;99.90;;;;;;7372582;19;20452;-48
2022/05/09 04:42:17;;;;;;;12.83;11.43;;;13.30;99.90;;;;;;7364371;19;20925;-48
2022/05/09 04:44:47;;;;;;;14.70;11.07;;;13.40;99.90;;;;;;7367405;19;20467;-48
2022/05/09 04:47:16;;;;;;;14.33;11.07;;;13.40;99.90;;;;;;7370284;19;20440;-48
2022/05/09 04:49:48;;;;;;;12.77;9.87;;;13.40;99.90;;;;;;7372035;19;20463;-48
2022/05/09 04:52:17;;;;;;;13.90;11.40;;;13.50;99.90;;;;;;7374167;19;20520;-49
2022/05/09 04:54:49;;;;;;;14.60;11.03;;;13.60;99.90;;;;;;7371355;19;20712;-48
2022/05/09 04:57:19;;;;;;;16.20;11.50;;;13.60;99.90;;;;;;7370867;19;21037;-49
2022/05/09 04:59:50;;;;;;;17.50;12.00;;;13.50;99.90;;;;;;7373005;19;20410;-48
2022/05/09 05:02:22;;;;;;;14.70;12.37;;;13.50;99.90;;;;;;7369730;19;20387;-49
2022/05/09 05:04:51;;;;;;;14.03;11.67;;;13.50;99.90;;;;;;7374425;19;20383;-49
2022/05/09 05:07:23;;;;;;;14.20;11.97;;;13.60;99.90;;;;;;7374067;19;20380;-50
2022/05/09 05:09:55;;;;;;;14.50;11.90;;;13.50;99.90;;;;;;7374551;19;20714;-49
2022/05/09 05:12:24;;;;;;;14.10;11.70;;;13.60;99.90;;;;;;7368462;19;20780;-51
2022/05/09 05:14:57;;;;;;;15.40;11.80;;;13.60;99.90;;;;;;7371119;19;20998;-48
2022/05/09 05:17:26;;;;;;;15.73;12.00;;;13.70;99.90;;;;;;7367789;19;20960;-50
2022/05/09 05:19:58;;;;;;;13.70;11.90;;;13.70;99.90;;;;;;7377661;19;20416;-48
2022/05/09 05:22:27;;;;;;;17.47;11.90;;;13.70;99.90;;;;;;7376550;19;20500;-49
2022/05/09 05:25:04;;;;;;;23.33;14.90;;;13.60;99.90;;;;;;7371909;19;20379;-49
2022/05/09 05:27:36;;;;;;;15.23;11.83;;;13.60;99.90;;;;;;7372632;19;20407;-49
2022/05/09 05:30:08;;;;;;;17.37;13.10;;;13.50;99.90;;;;;;7371818;19;20467;-49
2022/05/09 05:32:42;;;;;;;15.93;13.30;;;13.70;99.90;;;;;;7371144;19;20387;-49
2022/05/09 05:35:16;;;;;;;14.40;12.63;;;13.80;99.90;;;;;;7370861;19;20376;-49
2022/05/09 05:37:48;;;;;;;16.53;13.70;;;14.00;99.90;;;;;;7376294;19;20826;-50
2022/05/09 05:40:24;;;;;;;15.97;13.80;;;14.10;99.90;;;;;;7368632;19;20420;-47
2022/05/09 05:42:58;;;;;;;15.50;12.77;;;14.30;99.90;;;;;;7375488;19;20956;-49
2022/05/09 05:45:30;;;;;;;16.67;13.67;;;14.50;99.60;;;;;;7378073;19;20368;-48
2022/05/09 05:47:59;;;;;;;14.60;13.10;;;14.50;99.10;;;;;;7372019;19;20419;-49
2022/05/09 05:50:29;;;;;;;17.33;13.37;;;14.70;98.60;;;;;;7375439;19;20931;-49
2022/05/09 05:52:58;;;;;;;16.70;12.80;;;14.70;98.60;;;;;;7376804;19;20376;-49
2022/05/09 05:55:33;;;;;;;16.63;12.87;;;14.70;98.30;;;;;;7382093;19;20420;-49
2022/05/09 05:58:03;;;;;;;15.83;12.50;;;14.90;98.20;;;;;;7380731;19;20404;-49
2022/05/09 06:00:36;;;;;;;15.40;12.30;;;15.10;97.90;;;;;;7377328;19;20375;-48
2022/05/09 06:03:08;;;;;;;14.50;12.47;;;15.30;97.10;;;;;;7381653;19;20422;-49
2022/05/09 06:05:37;;;;;;;15.33;12.93;;;15.60;96.40;;;;;;7378505;19;20372;-49
2022/05/09 06:08:08;;;;;;;18.10;12.80;;;15.80;95.80;;;;;;7379166;19;20395;-49
2022/05/09 06:10:40;;;;;;;14.33;12.50;;;15.80;95.40;;;;;;7378881;19;20408;-49
2022/05/09 06:13:10;;;;;;;15.50;13.90;;;16.00;95.20;;;;;;7379526;19;20910;-49
2022/05/09 06:15:42;;;;;;;14.30;12.30;;;16.20;94.30;;;;;;7376814;19;20415;-50
2022/05/09 06:18:15;;;;;;;15.87;12.33;;;16.40;93.50;;;;;;7375316;19;20938;-48
2022/05/09 06:20:49;;;;;;;15.60;12.53;;;16.60;92.80;;;;;;7378388;19;20443;-49
2022/05/09 06:23:20;;;;;;;12.83;10.80;;;16.60;92.70;;;;;;7379887;19;20734;-50
2022/05/09 06:25:52;;;;;;;13.33;12.03;;;16.90;91.80;;;;;;7375429;19;20376;-49
2022/05/09 06:28:22;;;;;;;11.40;10.33;;;17.00;90.90;;;;;;7374999;19;20380;-49
2022/05/09 06:30:57;;;;;;;13.30;10.70;;;17.20;90.60;;;;;;7377723;19;20431;-49
2022/05/09 06:33:30;;;;;;;13.40;11.00;;;17.40;90.20;;;;;;7381825;19;20641;-49
2022/05/09 06:36:02;;;;;;;13.17;11.60;;;17.60;90.00;;;;;;7376612;19;20636;-49
2022/05/09 06:38:31;;;;;;;11.57;10.37;;;17.70;88.40;;;;;;7376157;19;20830;-49
2022/05/09 06:41:07;;;;;;;11.47;10.37;;;17.90;87.10;;;;;;7378914;19;20723;-49
2022/05/09 06:43:37;;;;;;;12.40;10.33;;;18.10;86.30;;;;;;7379815;19;20379;-50
2022/05/09 06:46:06;;;;;;;11.70;10.50;;;18.20;84.00;;;;;;7374719;19;20947;-49
2022/05/09 06:48:36;;;;;;;15.17;10.40;;;18.30;84.50;;;;;;7375694;19;20868;-49
2022/05/09 06:51:07;;;;;;;13.47;10.10;;;18.50;82.20;;;;;;7375973;19;20395;-49
2022/05/09 06:53:39;;;;;;;11.33;10.23;;;18.60;80.90;;;;;;7374672;19;20376;-49
2022/05/09 06:56:14;;;;;;;11.93;9.80;;;18.60;80.30;;;;;;7372605;19;20380;-49
2022/05/09 06:58:43;;;;;;;10.73;9.73;;;18.70;79.50;;;;;;7381278;19;20380;-49
2022/05/09 07:01:17;;;;;;;11.47;10.13;;;18.90;79.80;;;;;;7375426;19;20416;-49
2022/05/09 07:03:47;;;;;;;10.33;9.23;;;19.00;79.30;;;;;;7379391;19;20375;-49
2022/05/09 07:06:17;;;;;;;10.40;9.40;;;19.10;77.90;;;;;;7372837;19;20384;-49
2022/05/09 07:08:48;;;;;;;9.63;8.73;;;19.20;76.60;;;;;;7380790;19;20412;-49
2022/05/09 07:11:23;;;;;;;11.10;9.33;;;19.30;74.90;;;;;;7365603;19;20835;-50
2022/05/09 07:13:53;;;;;;;8.57;7.77;;;19.40;75.10;;;;;;7373146;19;20372;-49
2022/05/09 07:16:25;;;;;;;9.10;8.10;;;19.50;73.90;;;;;;7377915;19;20386;-50
2022/05/09 07:18:54;;;;;;;9.00;7.80;;;19.70;72.60;;;;;;7376931;19;20376;-49
2022/05/09 07:21:24;;;;;;;13.40;10.10;;;19.80;71.70;;;;;;7374564;19;21141;-49
2022/05/09 07:23:56;;;;;;;11.90;8.03;;;19.70;70.90;;;;;;7379869;19;20940;-50
2022/05/09 07:26:31;;;;;;;9.47;8.50;;;19.70;71.90;;;;;;7372657;19;20427;-49
2022/05/09 07:29:04;;;;;;;10.20;9.20;;;19.80;71.40;;;;;;7381376;19;20412;-49
2022/05/09 07:31:38;;;;;;;9.53;8.47;;;19.90;71.00;;;;;;7376427;19;20364;-50
2022/05/09 07:34:10;;;;;;;11.40;8.00;;;;;;;;;;7380098;19;20406;-49
2022/05/09 07:36:40;;;;;;;9.77;8.17;;;20.30;69.90;;;;;;7377537;19;20411;-49
2022/05/09 07:39:13;;;;;;;9.67;7.60;;;20.40;68.90;;;;;;7377566;19;20412;-49
2022/05/09 07:41:45;;;;;;;7.60;6.90;;;20.60;69.20;;;;;;7375217;19;20475;-48
2022/05/09 07:44:15;;;;;;;9.00;7.30;;;20.80;68.30;;;;;;7378396;19;20769;-47
2022/05/09 07:46:44;;;;;;;20.70;9.10;;;20.90;66.30;;;;;;7374672;19;20906;-48
2022/05/09 07:49:14;;;;;;;10.13;7.63;;;21.20;66.20;;;;;;7374728;19;20452;-47
2022/05/09 07:51:48;;;;;;;8.50;6.90;;;21.30;65.60;;;;;;7375306;19;20372;-47
2022/05/09 07:54:20;;;;;;;8.30;7.50;;;21.40;64.20;;;;;;7377807;19;20379;-47
2022/05/09 07:56:52;;;;;;;7.83;7.00;;;21.50;64.30;;;;;;7376988;19;20376;-48
2022/05/09 07:59:24;;;;;;;9.60;7.30;;;21.70;64.00;;;;;;7368110;19;20938;-46
2022/05/09 08:01:54;;;;;;;17.17;8.40;;;21.90;61.00;;;;;;7369327;19;20404;-40
2022/05/09 08:04:24;;;;;;;7.87;7.10;;;22.00;61.70;;;;;;7369749;19;20379;-38
2022/05/09 08:06:56;;;;;;;8.37;6.80;;;22.10;61.90;;;;;;7360103;19;20950;-40
2022/05/09 08:09:28;;;;;;;13.10;7.80;;;22.30;60.90;;;;;;7372069;19;20453;-38
2022/05/09 08:12:00;;;;;;;7.17;6.43;;;22.40;60.00;;;;;;7375816;19;20372;-37
2022/05/09 08:14:33;;;;;;;7.83;7.03;;;22.60;59.00;;;;;;7374505;19;20858;-38
2022/05/09 08:17:03;;;;;;;6.97;6.27;;;22.70;57.90;;;;;;7374665;19;20412;-40
2022/05/09 08:19:33;;;;;;;10.10;6.93;;;22.80;58.30;;;;;;7367853;19;20930;-40
2022/05/09 08:22:03;;;;;;;7.93;7.20;;;23.00;57.70;;;;;;7370396;19;20369;-40
2022/05/09 08:24:33;;;;;;;11.43;6.93;;;23.10;57.80;;;;;;7377349;19;20376;-40
2022/05/09 08:27:06;;;;;;;6.90;6.30;;;23.20;56.50;;;;;;7373689;19;20749;-40
2022/05/09 08:29:37;;;;;;;8.03;6.60;;;23.20;56.70;;;;;;7376849;19;20380;-40
2022/05/09 08:32:08;;;;;;;7.23;6.63;;;23.40;56.60;;;;;;7367954;19;20717;-49
2022/05/09 08:34:39;;;;;;;6.90;6.20;;;23.60;55.50;;;;;;7372493;19;20763;-49
2022/05/09 08:37:10;;;;;;;6.80;6.20;;;23.90;55.40;;;;;;7376311;19;21175;-50
2022/05/09 08:39:39;;;;;;;7.10;6.40;;;24.20;55.00;;;;;;7367569;19;20380;-49
2022/05/09 08:42:18;;;;;;;6.67;6.10;;;24.40;53.50;;;;;;7373871;19;20414;-50
2022/05/09 08:45:20;;;;;;;6.00;5.50;;;24.50;53.40;;;;;;7368720;19;20395;-49
2022/05/09 08:48:23;;;;;;;6.73;6.10;;;24.70;53.30;;;;;;7373302;19;20396;-50
2022/05/09 08:51:14;;;;;;;6.37;5.53;;;24.80;52.90;;;;;;7369935;19;20383;-51
2022/05/09 08:53:48;;;;;;;5.43;4.93;;;25.10;51.80;;;;;;7372870;19;21419;-52
2022/05/09 08:56:19;;;;;;;6.17;5.57;;;25.30;51.90;;;;;;7376466;19;20391;-51
2022/05/09 08:58:56;;;;;;;7.17;5.60;;;25.50;50.30;;;;;;7375289;19;20898;-49
2022/05/09 09:01:38;;;;;;;7.20;5.83;;;25.90;49.70;;;;;;7369977;19;21033;-49
2022/05/09 09:04:24;;;;;;;6.90;6.20;;;26.20;48.40;;;;;;7374510;19;20432;-49
2022/05/09 09:07:06;;;;;;;7.50;6.70;;;26.40;48.10;;;;;;7373443;19;20436;-47
2022/05/09 09:09:56;;;;;;;10.03;6.40;;;26.60;46.80;;;;;;7368897;19;20491;-48
2022/05/09 09:12:33;;;;;;;6.13;5.17;;;27.10;46.90;;;;;;7361720;19;20409;-49
2022/05/09 09:15:14;;;;;;;6.40;5.80;;;27.40;46.00;;;;;;7382307;19;20906;-48
2022/05/09 09:18:00;;;;;;;6.77;6.07;;;27.90;45.00;;;;;;7380798;19;21008;-47
2022/05/09 09:20:34;;;;;;;5.40;4.90;;;27.20;43.50;;;;;;7379684;19;20419;-47
2022/05/09 09:23:17;;;;;;;7.10;6.50;;;26.90;45.60;;;;;;7382607;19;20371;-48
2022/05/09 09:26:02;;;;;;;6.43;5.90;;;27.10;45.30;;;;;;7381892;19;20412;-50
2022/05/09 09:28:46;;;;;;;6.77;6.10;;;26.90;45.60;;;;;;7382095;19;20917;-46
2022/05/09 09:31:29;;;;;;;6.57;5.93;;;27.10;45.40;;;;;;7380550;19;20911;-46
2022/05/09 09:34:06;;;;;;;5.13;4.70;;;27.30;44.90;;;;;;7384455;19;20424;-47
2022/05/09 09:36:41;;;;;;;5.77;5.27;;;27.80;43.90;;;;;;7378105;19;20371;-47
2022/05/09 09:39:17;;;;;;;6.00;5.17;;;28.00;43.70;;;;;;7380572;19;20379;-47
2022/05/09 09:41:46;;;;;;;6.10;5.50;;;28.70;42.80;;;;;;7377245;19;20505;-39
2022/05/09 09:44:18;;;;;;;5.70;5.20;;;29.50;41.40;;;;;;7378331;19;21159;-42
2022/05/09 09:47:07;;;;;;;5.33;4.83;;;30.20;40.10;;;;;;7369164;19;20376;-41
2022/05/09 09:49:38;;;;;;;6.43;5.83;;;30.80;38.50;;;;;;7363478;19;20443;-42
2022/05/09 09:52:21;;;;;;;5.37;4.50;;;30.80;37.00;;;;;;7374839;19;20375;-42
2022/05/09 09:54:58;;;;;;;5.93;5.37;;;30.90;37.80;;;;;;7371910;19;20376;-41
2022/05/09 09:57:32;;;;;;;7.13;5.53;;;30.60;37.10;;;;;;7378602;19;20372;-42
2022/05/09 10:00:19;;;;;;;6.50;5.97;;;30.70;37.20;;;;;;7377016;19;20379;-42
2022/05/09 10:02:56;;;;;;;5.70;5.20;;;30.90;37.20;;;;;;7367110;19;20408;-41
2022/05/09 10:05:35;;;;;;;6.93;5.53;;;30.90;37.40;;;;;;7376576;19;20372;-42
2022/05/09 10:08:21;;;;;;;5.70;5.20;;;31.20;36.50;;;;;;7375429;19;20375;-39
2022/05/09 10:10:58;;;;;;;6.10;5.50;;;30.20;37.50;;;;;;7378520;19;20456;-47
2022/05/09 10:13:40;;;;;;;6.33;5.10;;;29.70;37.60;;;;;;7375296;19;20668;-47
2022/05/09 10:16:14;;;;;;;5.60;5.10;;;29.50;38.10;;;;;;7373548;19;20419;-47
2022/05/09 10:18:50;;;;;;;5.57;5.07;;;29.00;38.60;;;;;;7368702;19;20471;-46
2022/05/09 10:27:05;;;;;;;6.07;5.67;;;28.60;39.80;;;;;;7369463;19;20444;-48
2022/05/09 10:29:40;;;;;;;8.00;5.00;;;27.60;40.20;;;;;;7373019;19;20876;-45
2022/05/09 10:32:13;;;;;;;4.83;4.50;;;27.30;41.10;;;;;;7382960;19;20412;-47
2022/05/09 10:34:55;;;;;;;7.03;5.13;;;27.40;40.70;;;;;;7380770;19;20775;-47
2022/05/09 10:37:38;;;;;;;5.67;5.27;;;28.60;39.40;;;;;;7381210;19;20403;-46
2022/05/09 10:40:10;;;;;;;5.13;4.70;;;29.20;37.60;;;;;;7382016;19;20933;-40
2022/05/09 10:42:48;;;;;;;6.17;4.90;;;28.10;38.60;;;;;;7380429;19;20376;-40
2022/05/09 10:45:21;;;;;;;6.33;5.80;;;27.80;40.20;;;;;;7378022;19;20422;-41
2022/05/09 10:47:57;;;;;;;5.97;5.57;;;27.10;40.30;;;;;;7374461;19;20394;-39
2022/05/09 10:50:37;;;;;;;4.77;4.37;;;26.60;41.00;;;;;;7375022;19;20447;-39
2022/05/09 10:53:15;;;;;;;5.37;4.87;;;27.20;40.30;;;;;;7373763;19;20388;-39
2022/05/09 10:56:02;;;;;;;5.53;5.00;;;28.70;39.20;;;;;;7379082;19;20387;-41
2022/05/09 10:58:36;;;;;;;4.80;4.40;;;30.80;35.00;;;;;;7378296;19;20372;-41
2022/05/09 11:01:12;;;;;;;4.80;4.37;;;31.90;32.20;;;;;;7378707;19;20761;-41
2022/05/09 11:03:44;;;;;;;4.87;4.47;;;33.00;32.30;;;;;;7374983;19;20372;-39
2022/05/09 11:06:26;;;;;;;5.43;5.03;;;33.80;29.50;;;;;;7364731;19;20954;-42
2022/05/09 11:09:23;;;;;;;4.90;4.40;;;32.70;30.60;;;;;;7366298;19;20380;-39
2022/05/09 11:12:15;;;;;;;5.50;5.00;;;31.50;31.90;;;;;;7376884;19;20372;-39
2022/05/09 11:15:03;;;;;;;5.20;4.70;;;31.40;32.30;;;;;;7378654;19;20421;-41
2022/05/09 11:18:15;;;;;;;5.20;3.80;;;32.80;31.30;;;;;;7383511;19;21413;-39
2022/05/09 11:20:53;;;;;;;5.60;5.13;;;33.70;29.60;;;;;;7379477;19;20420;-42
2022/05/09 11:23:35;;;;;;;4.87;4.47;;;32.90;29.70;;;;;;7370982;19;20416;-42
2022/05/09 11:26:17;;;;;;;4.87;4.47;;;32.80;29.50;;;;;;7375639;19;20392;-42
2022/05/09 11:29:17;;;;;;;4.40;4.00;;;32.90;29.50;;;;;;7380035;19;20380;-42
2022/05/09 11:32:13;;;;;;;5.30;4.50;;;33.20;29.90;;;;;;7380134;19;20380;-39
2022/05/09 11:35:07;;;;;;;5.10;4.60;;;33.90;28.20;;;;;;7380897;19;20375;-42
2022/05/09 11:37:50;;;;;;;5.20;4.80;;;32.80;29.40;;;;;;7381385;19;20380;-39
2022/05/09 11:40:33;;;;;;;4.63;4.30;;;31.60;30.50;;;;;;7382488;19;20431;-39
2022/05/09 11:43:32;;;;;;;4.70;4.30;;;30.40;32.20;;;;;;7382558;19;20379;-38
2022/05/09 11:46:17;;;;;;;4.93;4.50;;;29.10;34.80;;;;;;7375821;19;20946;-40
2022/05/09 11:49:05;;;;;;;5.23;4.73;;;28.00;36.50;;;;;;7380444;19;20459;-40
2022/05/09 11:51:45;;;;;;;5.87;5.27;;;27.30;38.40;;;;;;7380185;19;20360;-40
2022/05/09 11:54:20;;;;;;;5.93;5.33;;;27.00;39.20;;;;;;7380279;19;20380;-40
2022/05/09 11:56:55;;;;;;;5.30;4.80;;;26.80;39.00;;;;;;7380788;19;20445;-41
2022/05/09 11:59:27;;;;;;;5.37;4.53;;;27.20;39.10;;;;;;7382526;19;21213;-39
2022/05/09 12:02:03;;;;;;;5.47;4.70;;;28.70;37.00;;;;;;7381419;19;21038;-38
2022/05/09 12:04:38;;;;;;;5.27;4.30;;;29.20;34.10;;;;;;7383038;19;20391;-38
2022/05/09 12:07:45;;;;;;;4.33;4.03;;;28.90;35.40;;;;;;7378160;19;20463;-38
2022/05/09 12:10:27;;;;;;;5.23;4.53;;;29.50;35.00;;;;;;7378605;19;20418;-41
2022/05/09 12:13:01;;;;;;;5.60;4.43;;;31.10;32.30;;;;;;7381944;19;20455;-41
2022/05/09 12:15:59;;;;;;;4.50;4.13;;;31.70;30.40;;;;;;7381636;19;20391;-41
2022/05/09 12:18:32;;;;;;;5.00;4.50;;;31.50;30.30;;;;;;7374428;19;21073;-38
2022/05/09 12:21:31;;;;;;;6.17;5.63;;;30.30;32.20;;;;;;7376510;19;20372;-47
2022/05/09 12:24:26;;;;;;;4.83;4.23;;;28.70;34.60;;;;;;7376826;19;20404;-47
2022/05/09 12:27:01;;;;;;;5.43;4.93;;;27.40;36.50;;;;;;7375955;19;20444;-47
2022/05/09 12:29:51;;;;;;;5.17;4.77;;;27.30;37.50;;;;;;7372739;19;20398;-46
2022/05/09 12:32:24;;;;;;;5.37;4.50;;;28.80;35.00;;;;;;7379857;19;20943;-47
2022/05/09 12:34:55;;;;;;;5.20;4.40;;;29.20;33.70;;;;;;7380210;19;20393;-47
2022/05/09 12:37:28;;;;;;;5.03;4.30;;;28.30;36.20;;;;;;7378172;19;20394;-48
2022/05/09 12:40:21;;;;;;;5.33;4.83;;;28.40;35.40;;;;;;7378810;19;20910;-47
2022/05/09 12:42:57;;;;;;;5.63;4.80;;;28.70;34.50;;;;;;7381904;19;20914;-45
2022/05/09 12:45:33;;;;;;;4.60;4.30;;;30.20;32.50;;;;;;7378274;19;21725;-49
2022/05/09 12:48:04;;;;;;;4.90;4.33;;;31.80;30.50;;;;;;7375521;19;20931;-47
2022/05/09 12:50:39;;;;;;;4.97;4.30;;;32.10;29.90;;;;;;7376651;19;20376;-48
2022/05/09 12:53:17;;;;;;;5.00;4.60;;;32.70;29.10;;;;;;7376887;19;20432;-47
2022/05/09 12:55:55;;;;;;;9.57;4.47;;;32.50;28.90;;;;;;7379842;19;20903;-49
2022/05/09 12:58:32;;;;;;;4.50;4.10;;;33.00;28.80;;;;;;7372480;19;20375;-49
2022/05/09 13:01:08;;;;;;;4.33;3.93;;;33.30;28.20;;;;;;7380863;19;20652;-49
2022/05/09 13:03:48;;;;;;;4.77;4.27;;;32.70;28.50;;;;;;7380046;19;20379;-47
2022/05/09 13:06:22;;;;;;;6.73;4.40;;;32.50;29.10;;;;;;7379727;19;21546;-47
2022/05/09 13:08:58;;;;;;;5.40;4.03;;;31.80;30.00;;;;;;7372769;19;20953;-47
2022/05/09 13:11:34;;;;;;;4.60;4.20;;;32.60;28.90;;;;;;7380510;19;20940;-49
2022/05/09 13:14:11;;;;;;;5.40;4.90;;;33.00;28.70;;;;;;7379898;19;20427;-47
2022/05/09 13:16:58;;;;;;;6.00;4.27;;;33.50;28.20;;;;;;7373258;19;20452;-47
2022/05/09 13:19:28;;;;;;;5.40;4.90;;;33.10;29.00;;;;;;7348603;19;20423;-48
2022/05/09 13:22:11;;;;;;;5.10;4.70;;;32.80;28.50;;;;;;7374966;19;20376;-48
2022/05/09 13:24:41;;;;;;;6.00;3.80;;;33.00;29.10;;;;;;7379469;19;20383;-48
2022/05/09 13:27:13;;;;;;;5.73;4.70;;;32.40;29.20;;;;;;7374307;19;20387;-49
2022/05/09 13:29:53;;;;;;;5.20;4.60;;;31.70;29.50;;;;;;7376613;19;20798;-47
2022/05/09 13:32:34;;;;;;;5.57;5.07;;;30.80;30.50;;;;;;7358949;19;20379;-46